sensor_id;sensor_type;location;lat;lon;timestamp;pressure;altitude;pressure_sealevel;temperature;humidity
35908;BME280;22003;50.320;8.054;2023-04-06T04:02:10;99897.09;;;-3.79;99.00
35908;BME280;22003;50.320;8.054;2023-04-06T04:04:35;99838.16;;;-4.12;99.12
35908;BME280;22003;50.320;8.054;2023-04-06T04:07:00;99900.66;;;-3.84;98.87
35908;BME280;22003;50.320;8.054;2023-04-06T04:09:25;99902.47;;;-3.89;98.47
35908;BME280;22003;50.320;8.054;2023-04-06T04:11:51;99905.91;;;-3.89;98.53
35908;BME280;22003;50.320;8.054;2023-04-06T04:14:16;99898.13;;;-3.87;98.58
35908;BME280;22003;50.320;8.054;2023-04-06T04:16:41;99909.16;;;-3.78;98.68
35908;BME280;22003;50.320;8.054;2023-04-06T04:19:07;99823.97;;;-4.41;97.70
35908;BME280;22003;50.320;8.054;2023-04-06T04:21:32;99908.53;;;-3.90;98.10
35908;BME280;22003;50.320;8.054;2023-04-06T04:23:57;99910.38;;;-3.97;98.34
35908;BME280;22003;50.320;8.054;2023-04-06T04:26:23;99919.88;;;-3.97;98.32
35908;BME280;22003;50.320;8.054;2023-04-06T04:28:48;99924.97;;;-3.93;98.96
35908;BME280;22003;50.320;8.054;2023-04-06T04:31:13;99909.59;;;-4.02;98.88
35908;BME280;22003;50.320;8.054;2023-04-06T04:33:38;99916.47;;;-4.00;99.39
35908;BME280;22003;50.320;8.054;2023-04-06T04:36:04;99876.47;;;-4.33;99.31
35908;BME280;22003;50.320;8.054;2023-04-06T04:38:29;99922.59;;;-4.05;99.49
35908;BME280;22003;50.320;8.054;2023-04-06T04:40:55;99841.38;;;-4.51;99.48
35908;BME280;22003;50.320;8.054;2023-04-06T04:43:20;99919.06;;;-4.01;100.00
35908;BME280;22003;50.320;8.054;2023-04-06T04:45:45;99870.50;;;-4.39;99.78
35908;BME280;22003;50.320;8.054;2023-04-06T04:48:11;99921.75;;;-4.07;99.56
35908;BME280;22003;50.320;8.054;2023-04-06T04:50:36;99920.16;;;-4.16;99.05
35908;BME280;22003;50.320;8.054;2023-04-06T04:53:01;99898.66;;;-4.19;99.62
35908;BME280;22003;50.320;8.054;2023-04-06T04:55:27;99901.22;;;-4.16;99.44
35908;BME280;22003;50.320;8.054;2023-04-06T04:57:54;99927.66;;;-3.99;99.55
35908;BME280;22003;50.320;8.054;2023-04-06T05:00:19;99931.09;;;-4.00;99.26
35908;BME280;22003;50.320;8.054;2023-04-06T05:02:45;99926.53;;;-3.83;99.11
35908;BME280;22003;50.320;8.054;2023-04-06T05:05:11;99934.44;;;-3.92;98.73
35908;BME280;22003;50.320;8.054;2023-04-06T05:07:36;99918.94;;;-3.95;98.36
35908;BME280;22003;50.320;8.054;2023-04-06T05:10:01;99929.53;;;-3.58;98.68
35908;BME280;22003;50.320;8.054;2023-04-06T05:12:27;99933.75;;;-3.52;97.63
35908;BME280;22003;50.320;8.054;2023-04-06T05:14:53;99920.97;;;-3.61;97.01
35908;BME280;22003;50.320;8.054;2023-04-06T05:17:19;99929.47;;;-3.53;96.81
35908;BME280;22003;50.320;8.054;2023-04-06T05:19:44;99896.03;;;-3.65;96.93
35908;BME280;22003;50.320;8.054;2023-04-06T05:22:10;99840.34;;;-3.89;96.56
35908;BME280;22003;50.320;8.054;2023-04-06T05:24:35;99936.63;;;-3.20;96.74
35908;BME280;22003;50.320;8.054;2023-04-06T05:27:01;99935.38;;;-3.00;96.80
35908;BME280;22003;50.320;8.054;2023-04-06T05:29:26;99932.69;;;-2.96;96.29
35908;BME280;22003;50.320;8.054;2023-04-06T05:31:52;99937.66;;;-2.85;97.13
35908;BME280;22003;50.320;8.054;2023-04-06T05:34:17;99851.78;;;-3.11;96.68
35908;BME280;22003;50.320;8.054;2023-04-06T05:36:42;99926.66;;;-2.54;96.11
35908;BME280;22003;50.320;8.054;2023-04-06T05:39:08;99933.06;;;-2.32;95.79
35908;BME280;22003;50.320;8.054;2023-04-06T05:41:33;99930.50;;;-1.96;94.40
35908;BME280;22003;50.320;8.054;2023-04-06T05:43:58;99899.34;;;-1.96;93.92
35908;BME280;22003;50.320;8.054;2023-04-06T05:46:24;99927.97;;;-1.64;93.43
35908;BME280;22003;50.320;8.054;2023-04-06T05:48:49;99933.66;;;-1.49;92.83
35908;BME280;22003;50.320;8.054;2023-04-06T05:51:14;99886.78;;;-1.79;92.11
35908;BME280;22003;50.320;8.054;2023-04-06T05:53:40;99926.75;;;-1.18;92.33
35908;BME280;22003;50.320;8.054;2023-04-06T05:56:05;99933.34;;;-1.06;91.36
35908;BME280;22003;50.320;8.054;2023-04-06T05:58:31;99931.66;;;-1.38;91.45
35908;BME280;22003;50.320;8.054;2023-04-06T06:01:00;99916.72;;;-1.64;92.66
35908;BME280;22003;50.320;8.054;2023-04-06T06:03:25;99926.75;;;-1.18;93.38
35908;BME280;22003;50.320;8.054;2023-04-06T06:05:51;99940.44;;;-0.80;91.38
35908;BME280;22003;50.320;8.054;2023-04-06T06:08:16;99880.31;;;-1.00;90.20
35908;BME280;22003;50.320;8.054;2023-04-06T06:10:42;99934.44;;;-0.84;90.06
35908;BME280;22003;50.320;8.054;2023-04-06T06:13:08;99854.06;;;-1.21;90.46
35908;BME280;22003;50.320;8.054;2023-04-06T06:15:33;99926.28;;;-0.70;91.03
35908;BME280;22003;50.320;8.054;2023-04-06T06:17:58;99911.84;;;-0.52;91.44
35908;BME280;22003;50.320;8.054;2023-04-06T06:20:24;99931.69;;;-0.48;91.28
35908;BME280;22003;50.320;8.054;2023-04-06T06:22:50;99931.94;;;-0.28;91.37
35908;BME280;22003;50.320;8.054;2023-04-06T06:25:15;99919.78;;;-0.01;91.61
35908;BME280;22003;50.320;8.054;2023-04-06T06:27:40;99914.28;;;-0.18;90.99
35908;BME280;22003;50.320;8.054;2023-04-06T06:30:07;99915.09;;;-0.16;90.55
35908;BME280;22003;50.320;8.054;2023-04-06T06:32:32;99926.88;;;0.22;90.50
35908;BME280;22003;50.320;8.054;2023-04-06T06:34:57;99930.28;;;0.24;90.02
35908;BME280;22003;50.320;8.054;2023-04-06T06:37:23;99914.19;;;0.38;88.44
35908;BME280;22003;50.320;8.054;2023-04-06T06:39:48;99922.91;;;0.37;88.27
35908;BME280;22003;50.320;8.054;2023-04-06T06:42:13;99921.84;;;0.43;89.14
35908;BME280;22003;50.320;8.054;2023-04-06T06:44:39;99930.44;;;0.46;88.41
35908;BME280;22003;50.320;8.054;2023-04-06T06:47:04;99931.91;;;0.53;88.89
35908;BME280;22003;50.320;8.054;2023-04-06T06:49:29;99932.97;;;0.48;89.32
35908;BME280;22003;50.320;8.054;2023-04-06T06:51:54;99911.19;;;0.50;87.94
35908;BME280;22003;50.320;8.054;2023-04-06T06:54:20;99925.97;;;0.75;88.16
35908;BME280;22003;50.320;8.054;2023-04-06T06:56:45;99931.88;;;0.80;89.56
35908;BME280;22003;50.320;8.054;2023-04-06T06:59:10;99929.28;;;1.27;88.87
35908;BME280;22003;50.320;8.054;2023-04-06T07:01:36;99846.34;;;0.65;89.23
35908;BME280;22003;50.320;8.054;2023-04-06T07:04:01;99871.56;;;1.13;88.03
35908;BME280;22003;50.320;8.054;2023-04-06T07:06:26;99916.53;;;1.19;87.45
35908;BME280;22003;50.320;8.054;2023-04-06T07:08:52;99922.97;;;0.86;89.13
35908;BME280;22003;50.320;8.054;2023-04-06T07:11:17;99923.75;;;1.13;87.74
35908;BME280;22003;50.320;8.054;2023-04-06T07:13:42;99872.25;;;0.44;87.90
35908;BME280;22003;50.320;8.054;2023-04-06T07:16:08;99931.50;;;0.91;89.10
35908;BME280;22003;50.320;8.054;2023-04-06T07:18:33;99920.78;;;0.98;89.51
35908;BME280;22003;50.320;8.054;2023-04-06T07:20:59;99924.13;;;1.02;89.08
35908;BME280;22003;50.320;8.054;2023-04-06T07:23:24;99824.16;;;0.30;88.55
35908;BME280;22003;50.320;8.054;2023-04-06T07:25:49;99894.28;;;0.86;88.18
35908;BME280;22003;50.320;8.054;2023-04-06T07:28:17;99919.38;;;0.90;87.44
35908;BME280;22003;50.320;8.054;2023-04-06T07:30:42;99911.53;;;0.90;87.67
35908;BME280;22003;50.320;8.054;2023-04-06T07:33:07;99904.22;;;1.46;87.19
35908;BME280;22003;50.320;8.054;2023-04-06T07:35:33;99918.97;;;1.24;86.57
35908;BME280;22003;50.320;8.054;2023-04-06T07:37:59;99908.19;;;1.33;86.48
35908;BME280;22003;50.320;8.054;2023-04-06T07:40:25;99739.91;;;0.52;86.15
35908;BME280;22003;50.320;8.054;2023-04-06T07:42:51;99914.81;;;1.87;85.53
35908;BME280;22003;50.320;8.054;2023-04-06T07:45:17;99898.53;;;2.02;82.95
35908;BME280;22003;50.320;8.054;2023-04-06T07:47:43;99902.56;;;1.89;83.12
35908;BME280;22003;50.320;8.054;2023-04-06T07:50:09;99901.00;;;2.05;84.63
35908;BME280;22003;50.320;8.054;2023-04-06T07:52:34;99906.00;;;2.11;84.07
35908;BME280;22003;50.320;8.054;2023-04-06T07:54:59;99905.06;;;2.13;82.26
35908;BME280;22003;50.320;8.054;2023-04-06T07:57:25;99902.88;;;2.64;82.88
35908;BME280;22003;50.320;8.054;2023-04-06T07:59:50;99895.09;;;2.43;80.67
35908;BME280;22003;50.320;8.054;2023-04-06T08:02:16;99904.84;;;3.00;78.69
35908;BME280;22003;50.320;8.054;2023-04-06T08:04:41;99837.38;;;2.47;80.70
35908;BME280;22003;50.320;8.054;2023-04-06T08:07:06;99876.41;;;3.30;78.75
35908;BME280;22003;50.320;8.054;2023-04-06T08:09:31;99895.53;;;3.51;77.81
35908;BME280;22003;50.320;8.054;2023-04-06T08:11:57;99871.47;;;3.60;74.95
35908;BME280;22003;50.320;8.054;2023-04-06T08:14:22;99893.50;;;4.11;75.10
35908;BME280;22003;50.320;8.054;2023-04-06T08:16:48;99897.81;;;3.95;76.71
35908;BME280;22003;50.320;8.054;2023-04-06T08:19:13;99900.97;;;3.83;75.49
35908;BME280;22003;50.320;8.054;2023-04-06T08:21:38;99875.91;;;4.13;74.59
35908;BME280;22003;50.320;8.054;2023-04-06T08:24:05;99898.88;;;4.08;76.42
35908;BME280;22003;50.320;8.054;2023-04-06T08:26:31;99883.97;;;4.45;73.16
35908;BME280;22003;50.320;8.054;2023-04-06T08:28:56;99890.81;;;4.30;74.06
35908;BME280;22003;50.320;8.054;2023-04-06T08:31:21;99887.16;;;4.15;75.07
35908;BME280;22003;50.320;8.054;2023-04-06T08:33:46;99892.69;;;4.96;73.16
35908;BME280;22003;50.320;8.054;2023-04-06T08:36:14;99892.56;;;4.82;75.51
35908;BME280;22003;50.320;8.054;2023-04-06T08:38:40;99893.41;;;4.82;75.82
35908;BME280;22003;50.320;8.054;2023-04-06T08:41:16;99883.22;;;5.09;73.94
35908;BME280;22003;50.320;8.054;2023-04-06T08:43:53;99788.59;;;5.11;69.67
35908;BME280;22003;50.320;8.054;2023-04-06T08:46:21;99882.59;;;5.37;74.53
35908;BME280;22003;50.320;8.054;2023-04-06T08:48:48;99876.94;;;5.45;73.39
35908;BME280;22003;50.320;8.054;2023-04-06T08:51:15;99886.53;;;5.62;72.26
35908;BME280;22003;50.320;8.054;2023-04-06T08:53:40;99866.75;;;5.54;72.54
35908;BME280;22003;50.320;8.054;2023-04-06T08:56:07;99809.47;;;5.29;72.17
35908;BME280;22003;50.320;8.054;2023-04-06T08:58:39;99866.91;;;5.99;71.12
35908;BME280;22003;50.320;8.054;2023-04-06T09:01:11;99870.94;;;6.20;70.47
35908;BME280;22003;50.320;8.054;2023-04-06T09:03:39;99868.91;;;6.09;70.74
35908;BME280;22003;50.320;8.054;2023-04-06T09:06:04;99871.03;;;6.19;71.41
35908;BME280;22003;50.320;8.054;2023-04-06T09:08:30;99840.00;;;6.09;71.74
35908;BME280;22003;50.320;8.054;2023-04-06T09:10:56;99868.78;;;6.27;71.21
35908;BME280;22003;50.320;8.054;2023-04-06T09:13:22;99862.06;;;6.37;69.27
35908;BME280;22003;50.320;8.054;2023-04-06T09:15:58;99864.13;;;6.91;68.39
35908;BME280;22003;50.320;8.054;2023-04-06T09:18:30;99851.13;;;6.87;70.85
35908;BME280;22003;50.320;8.054;2023-04-06T09:21:04;99867.69;;;7.18;72.67
35908;BME280;22003;50.320;8.054;2023-04-06T09:23:30;99859.72;;;7.05;70.56
35908;BME280;22003;50.320;8.054;2023-04-06T09:26:06;99857.13;;;7.32;70.21
35908;BME280;22003;50.320;8.054;2023-04-06T09:28:50;99855.25;;;7.34;69.31
35908;BME280;22003;50.320;8.054;2023-04-06T09:31:21;99851.66;;;7.50;70.08
35908;BME280;22003;50.320;8.054;2023-04-06T09:33:46;99860.66;;;8.14;71.43
35908;BME280;22003;50.320;8.054;2023-04-06T09:36:12;99822.47;;;7.92;68.08
35908;BME280;22003;50.320;8.054;2023-04-06T09:38:50;99837.56;;;8.17;68.35
35908;BME280;22003;50.320;8.054;2023-04-06T09:41:27;99831.31;;;8.45;68.78
35908;BME280;22003;50.320;8.054;2023-04-06T09:44:05;99830.34;;;8.97;66.69
35908;BME280;22003;50.320;8.054;2023-04-06T09:46:32;99809.97;;;9.36;65.47
35908;BME280;22003;50.320;8.054;2023-04-06T09:48:59;99815.44;;;9.70;64.61
35908;BME280;22003;50.320;8.054;2023-04-06T09:51:25;99807.91;;;9.52;65.93
35908;BME280;22003;50.320;8.054;2023-04-06T09:53:53;99803.31;;;9.55;62.51
35908;BME280;22003;50.320;8.054;2023-04-06T09:56:22;99800.06;;;9.75;63.49
35908;BME280;22003;50.320;8.054;2023-04-06T09:58:52;99808.50;;;10.04;60.98
35908;BME280;22003;50.320;8.054;2023-04-06T10:01:19;99789.53;;;10.56;62.72
35908;BME280;22003;50.320;8.054;2023-04-06T10:06:38;99798.22;;;11.03;58.16
35908;BME280;22003;50.320;8.054;2023-04-06T10:09:04;99805.56;;;10.66;60.39
35908;BME280;22003;50.320;8.054;2023-04-06T10:11:33;99793.03;;;10.57;60.38
35908;BME280;22003;50.320;8.054;2023-04-06T10:13:59;99810.03;;;11.22;57.54
35908;BME280;22003;50.320;8.054;2023-04-06T10:16:25;99736.19;;;11.38;51.42
35908;BME280;22003;50.320;8.054;2023-04-06T10:19:13;99796.44;;;12.64;51.77
35908;BME280;22003;50.320;8.054;2023-04-06T10:21:39;99739.16;;;12.72;47.24
35908;BME280;22003;50.320;8.054;2023-04-06T10:24:08;99788.91;;;12.69;46.04
35908;BME280;22003;50.320;8.054;2023-04-06T10:26:38;99776.38;;;12.51;46.18
35908;BME280;22003;50.320;8.054;2023-04-06T10:29:04;99788.22;;;12.67;48.33
35908;BME280;22003;50.320;8.054;2023-04-06T10:31:30;99780.97;;;13.00;45.78
35908;BME280;22003;50.320;8.054;2023-04-06T10:34:02;99782.59;;;12.91;45.77
35908;BME280;22003;50.320;8.054;2023-04-06T10:36:31;99777.03;;;13.04;46.09
35908;BME280;22003;50.320;8.054;2023-04-06T10:39:01;99744.41;;;12.62;45.35
35908;BME280;22003;50.320;8.054;2023-04-06T10:41:42;99784.91;;;12.75;47.79
35908;BME280;22003;50.320;8.054;2023-04-06T10:44:17;99779.53;;;12.96;48.77
35908;BME280;22003;50.320;8.054;2023-04-06T10:46:53;99780.88;;;12.81;46.47
35908;BME280;22003;50.320;8.054;2023-04-06T10:49:20;99770.13;;;12.92;49.99
35908;BME280;22003;50.320;8.054;2023-04-06T10:51:51;99773.34;;;13.26;48.26
35908;BME280;22003;50.320;8.054;2023-04-06T10:54:18;99775.53;;;13.11;46.43
35908;BME280;22003;50.320;8.054;2023-04-06T10:56:45;99774.63;;;13.22;46.64
35908;BME280;22003;50.320;8.054;2023-04-06T10:59:10;99734.34;;;13.46;47.21
35908;BME280;22003;50.320;8.054;2023-04-06T11:01:35;99788.16;;;13.79;47.88
35908;BME280;22003;50.320;8.054;2023-04-06T11:04:01;99778.34;;;13.79;47.16
35908;BME280;22003;50.320;8.054;2023-04-06T11:06:28;99784.78;;;14.44;46.03
35908;BME280;22003;50.320;8.054;2023-04-06T11:08:57;99776.09;;;14.13;46.53
35908;BME280;22003;50.320;8.054;2023-04-06T11:11:24;99775.84;;;14.16;44.92
35908;BME280;22003;50.320;8.054;2023-04-06T11:13:55;99775.38;;;14.31;45.90
35908;BME280;22003;50.320;8.054;2023-04-06T11:16:26;99760.69;;;13.97;48.04
35908;BME280;22003;50.320;8.054;2023-04-06T11:21:36;99772.56;;;14.32;45.69
35908;BME280;22003;50.320;8.054;2023-04-06T11:26:41;99762.97;;;14.68;46.63
35908;BME280;22003;50.320;8.054;2023-04-06T11:29:07;99722.50;;;14.83;46.43
35908;BME280;22003;50.320;8.054;2023-04-06T11:31:40;99769.41;;;15.58;48.07
35908;BME280;22003;50.320;8.054;2023-04-06T11:34:10;99754.69;;;15.26;44.37
35908;BME280;22003;50.320;8.054;2023-04-06T11:36:36;99727.66;;;14.94;44.90
35908;BME280;22003;50.320;8.054;2023-04-06T11:39:03;99743.34;;;14.97;45.76
35908;BME280;22003;50.320;8.054;2023-04-06T11:41:28;99742.84;;;15.56;45.86
35908;BME280;22003;50.320;8.054;2023-04-06T11:43:55;99717.66;;;15.41;46.89
35908;BME280;22003;50.320;8.054;2023-04-06T11:46:20;99715.75;;;14.88;44.09
35908;BME280;22003;50.320;8.054;2023-04-06T11:48:46;99717.75;;;15.04;45.64
35908;BME280;22003;50.320;8.054;2023-04-06T11:51:11;99675.81;;;14.69;46.50
35908;BME280;22003;50.320;8.054;2023-04-06T11:53:46;99734.94;;;14.92;45.05
35908;BME280;22003;50.320;8.054;2023-04-06T11:56:11;99736.03;;;14.99;46.05
35908;BME280;22003;50.320;8.054;2023-04-06T11:58:47;99734.78;;;15.21;43.46
35908;BME280;22003;50.320;8.054;2023-04-06T12:01:12;99732.41;;;15.45;46.34
35908;BME280;22003;50.320;8.054;2023-04-06T12:03:37;99713.31;;;15.58;45.54
35908;BME280;22003;50.320;8.054;2023-04-06T12:06:03;99735.13;;;15.53;45.80
35908;BME280;22003;50.320;8.054;2023-04-06T12:08:28;99726.84;;;15.56;44.47
35908;BME280;22003;50.320;8.054;2023-04-06T12:10:53;99728.72;;;15.46;45.21
35908;BME280;22003;50.320;8.054;2023-04-06T12:13:18;99697.78;;;15.08;44.24
35908;BME280;22003;50.320;8.054;2023-04-06T12:15:44;99695.84;;;15.28;45.34
35908;BME280;22003;50.320;8.054;2023-04-06T12:18:09;99733.66;;;15.23;45.59
35908;BME280;22003;50.320;8.054;2023-04-06T12:20:34;99727.78;;;15.38;46.45
35908;BME280;22003;50.320;8.054;2023-04-06T12:23:00;99729.91;;;15.97;46.04
35908;BME280;22003;50.320;8.054;2023-04-06T12:25:25;99729.72;;;16.17;44.64
35908;BME280;22003;50.320;8.054;2023-04-06T12:27:50;99710.59;;;16.29;44.39
35908;BME280;22003;50.320;8.054;2023-04-06T12:30:16;99715.28;;;16.27;44.96
35908;BME280;22003;50.320;8.054;2023-04-06T12:32:41;99662.38;;;15.69;44.84
35908;BME280;22003;50.320;8.054;2023-04-06T12:35:07;99721.06;;;16.75;44.16
35908;BME280;22003;50.320;8.054;2023-04-06T12:37:33;99676.47;;;16.23;43.50
35908;BME280;22003;50.320;8.054;2023-04-06T12:39:59;99715.50;;;16.42;43.16
35908;BME280;22003;50.320;8.054;2023-04-06T12:42:25;99633.25;;;15.40;42.44
35908;BME280;22003;50.320;8.054;2023-04-06T12:44:51;99632.53;;;15.20;43.19
35908;BME280;22003;50.320;8.054;2023-04-06T12:47:16;99715.22;;;15.48;45.57
35908;BME280;22003;50.320;8.054;2023-04-06T12:49:43;99716.44;;;15.36;45.88
35908;BME280;22003;50.320;8.054;2023-04-06T12:52:08;99711.19;;;15.44;44.58
35908;BME280;22003;50.320;8.054;2023-04-06T12:54:34;99714.84;;;15.43;44.67
35908;BME280;22003;50.320;8.054;2023-04-06T12:56:59;99711.56;;;15.49;45.55
35908;BME280;22003;50.320;8.054;2023-04-06T12:59:25;99713.88;;;15.44;45.57
35908;BME280;22003;50.320;8.054;2023-04-06T13:01:51;99707.88;;;15.77;42.88
35908;BME280;22003;50.320;8.054;2023-04-06T13:04:17;99707.47;;;15.09;43.92
35908;BME280;22003;50.320;8.054;2023-04-06T13:06:42;99701.91;;;15.20;45.15
35908;BME280;22003;50.320;8.054;2023-04-06T13:09:08;99666.44;;;14.92;43.35
35908;BME280;22003;50.320;8.054;2023-04-06T13:11:33;99645.16;;;14.55;43.70
35908;BME280;22003;50.320;8.054;2023-04-06T13:13:58;99699.75;;;14.51;44.21
35908;BME280;22003;50.320;8.054;2023-04-06T13:16:23;99687.84;;;14.83;43.31
35908;BME280;22003;50.320;8.054;2023-04-06T13:18:49;99688.28;;;15.05;44.10
35908;BME280;22003;50.320;8.054;2023-04-06T13:21:16;99683.16;;;14.57;47.01
35908;BME280;22003;50.320;8.054;2023-04-06T13:23:42;99689.94;;;14.51;45.96
35908;BME280;22003;50.320;8.054;2023-04-06T13:26:07;99655.66;;;14.10;46.55
35908;BME280;22003;50.320;8.054;2023-04-06T13:28:34;99689.09;;;14.51;46.07
35908;BME280;22003;50.320;8.054;2023-04-06T13:31:01;99691.13;;;14.67;45.34
35908;BME280;22003;50.320;8.054;2023-04-06T13:33:27;99612.38;;;13.98;43.98
35908;BME280;22003;50.320;8.054;2023-04-06T13:35:52;99658.88;;;14.60;44.56
35908;BME280;22003;50.320;8.054;2023-04-06T13:38:18;99639.88;;;14.36;45.80
35908;BME280;22003;50.320;8.054;2023-04-06T13:40:43;99670.13;;;14.07;46.36
35908;BME280;22003;50.320;8.054;2023-04-06T13:43:09;99681.28;;;14.20;46.53
35908;BME280;22003;50.320;8.054;2023-04-06T13:45:34;99676.59;;;13.85;45.23
35908;BME280;22003;50.320;8.054;2023-04-06T13:47:59;99670.59;;;13.83;46.82
35908;BME280;22003;50.320;8.054;2023-04-06T13:50:26;99681.56;;;14.27;45.26
35908;BME280;22003;50.320;8.054;2023-04-06T13:52:51;99679.28;;;14.32;45.77
35908;BME280;22003;50.320;8.054;2023-04-06T13:55:17;99685.06;;;14.27;46.17
35908;BME280;22003;50.320;8.054;2023-04-06T13:57:42;99626.31;;;13.72;45.73
35908;BME280;22003;50.320;8.054;2023-04-06T14:00:08;99681.00;;;14.33;46.63
35908;BME280;22003;50.320;8.054;2023-04-06T14:02:34;99658.16;;;14.21;45.03
35908;BME280;22003;50.320;8.054;2023-04-06T14:04:59;99682.50;;;14.45;44.80
35908;BME280;22003;50.320;8.054;2023-04-06T14:07:25;99611.50;;;14.07;44.72
35908;BME280;22003;50.320;8.054;2023-04-06T14:09:50;99670.28;;;14.43;46.33
35908;BME280;22003;50.320;8.054;2023-04-06T14:12:15;99664.44;;;14.30;45.38
35908;BME280;22003;50.320;8.054;2023-04-06T14:14:40;99610.13;;;13.93;44.39
35908;BME280;22003;50.320;8.054;2023-04-06T14:17:06;99675.91;;;13.83;46.53
35908;BME280;22003;50.320;8.054;2023-04-06T14:19:31;99665.97;;;13.76;46.33
35908;BME280;22003;50.320;8.054;2023-04-06T14:21:57;99683.03;;;13.92;46.32
35908;BME280;22003;50.320;8.054;2023-04-06T14:24:22;99669.50;;;13.66;47.75
35908;BME280;22003;50.320;8.054;2023-04-06T14:26:47;99656.72;;;13.41;45.85
35908;BME280;22003;50.320;8.054;2023-04-06T14:29:13;99668.78;;;13.45;45.90
35908;BME280;22003;50.320;8.054;2023-04-06T14:31:38;99666.94;;;13.26;46.92
35908;BME280;22003;50.320;8.054;2023-04-06T14:34:03;99651.06;;;13.15;47.95
35908;BME280;22003;50.320;8.054;2023-04-06T14:36:31;99667.22;;;13.23;47.34
35908;BME280;22003;50.320;8.054;2023-04-06T14:39:05;99665.00;;;13.28;47.24
35908;BME280;22003;50.320;8.054;2023-04-06T14:41:31;99671.84;;;13.31;47.34
35908;BME280;22003;50.320;8.054;2023-04-06T14:43:57;99669.19;;;12.81;48.58
35908;BME280;22003;50.320;8.054;2023-04-06T14:46:22;99628.22;;;12.83;48.38
35908;BME280;22003;50.320;8.054;2023-04-06T14:48:47;99627.06;;;12.76;48.39
35908;BME280;22003;50.320;8.054;2023-04-06T14:51:13;99666.03;;;12.97;49.19
35908;BME280;22003;50.320;8.054;2023-04-06T14:53:38;99664.25;;;13.16;49.25
35908;BME280;22003;50.320;8.054;2023-04-06T14:56:04;99663.34;;;12.87;49.09
35908;BME280;22003;50.320;8.054;2023-04-06T14:58:29;99660.72;;;13.06;49.65
35908;BME280;22003;50.320;8.054;2023-04-06T15:01:01;99654.13;;;12.91;49.67
35908;BME280;22003;50.320;8.054;2023-04-06T15:03:28;99647.47;;;12.56;51.32
35908;BME280;22003;50.320;8.054;2023-04-06T15:05:54;99668.66;;;12.77;48.29
35908;BME280;22003;50.320;8.054;2023-04-06T15:08:21;99666.19;;;13.05;46.14
35908;BME280;22003;50.320;8.054;2023-04-06T15:10:47;99659.31;;;12.52;46.14
35908;BME280;22003;50.320;8.054;2023-04-06T15:13:12;99663.59;;;12.74;47.04
35908;BME280;22003;50.320;8.054;2023-04-06T15:15:38;99659.31;;;12.52;46.30
35908;BME280;22003;50.320;8.054;2023-04-06T15:18:04;99660.41;;;12.40;46.74
35908;BME280;22003;50.320;8.054;2023-04-06T15:20:30;99663.25;;;12.58;46.76
35908;BME280;22003;50.320;8.054;2023-04-06T15:22:56;99666.31;;;12.53;46.62
35908;BME280;22003;50.320;8.054;2023-04-06T15:25:21;99586.09;;;11.98;47.05
35908;BME280;22003;50.320;8.054;2023-04-06T15:27:46;99667.94;;;12.35;47.65
35908;BME280;22003;50.320;8.054;2023-04-06T15:30:12;99666.25;;;12.43;47.33
35908;BME280;22003;50.320;8.054;2023-04-06T15:32:37;99668.16;;;12.22;48.66
35908;BME280;22003;50.320;8.054;2023-04-06T15:35:10;99655.25;;;12.18;48.71
35908;BME280;22003;50.320;8.054;2023-04-06T15:37:37;99591.44;;;11.35;49.27
35908;BME280;22003;50.320;8.054;2023-04-06T15:40:03;99674.28;;;11.81;49.68
35908;BME280;22003;50.320;8.054;2023-04-06T15:42:28;99679.38;;;11.84;50.04
35908;BME280;22003;50.320;8.054;2023-04-06T15:44:53;99689.50;;;11.79;50.98
35908;BME280;22003;50.320;8.054;2023-04-06T15:47:18;99676.91;;;11.60;51.08
35908;BME280;22003;50.320;8.054;2023-04-06T15:49:44;99657.09;;;11.43;51.77
35908;BME280;22003;50.320;8.054;2023-04-06T15:52:09;99683.97;;;11.71;51.21
35908;BME280;22003;50.320;8.054;2023-04-06T15:54:35;99686.72;;;11.48;51.06
35908;BME280;22003;50.320;8.054;2023-04-06T15:57:05;99624.50;;;10.88;51.40
35908;BME280;22003;50.320;8.054;2023-04-06T15:59:31;99645.59;;;10.90;52.08
35908;BME280;22003;50.320;8.054;2023-04-06T16:01:56;99687.50;;;11.39;51.56
35908;BME280;22003;50.320;8.054;2023-04-06T16:04:21;99692.50;;;11.21;51.58
35908;BME280;22003;50.320;8.054;2023-04-06T16:06:47;99704.69;;;11.13;52.82
35908;BME280;22003;50.320;8.054;2023-04-06T16:09:12;99705.09;;;10.97;53.63
35908;BME280;22003;50.320;8.054;2023-04-06T16:11:37;99707.97;;;10.82;53.57
35908;BME280;22003;50.320;8.054;2023-04-06T16:14:03;99711.00;;;10.89;53.66
35908;BME280;22003;50.320;8.054;2023-04-06T16:16:29;99704.00;;;10.77;55.55
35908;BME280;22003;50.320;8.054;2023-04-06T16:18:54;99712.94;;;10.53;55.25
35908;BME280;22003;50.320;8.054;2023-04-06T16:21:19;99716.06;;;10.47;55.64
35908;BME280;22003;50.320;8.054;2023-04-06T16:23:46;99721.00;;;10.86;54.11
35908;BME280;22003;50.320;8.054;2023-04-06T16:26:12;99700.19;;;10.70;54.05
35908;BME280;22003;50.320;8.054;2023-04-06T16:28:38;99709.59;;;10.63;54.61
35908;BME280;22003;50.320;8.054;2023-04-06T16:31:03;99715.00;;;10.50;54.87
35908;BME280;22003;50.320;8.054;2023-04-06T16:33:28;99710.19;;;10.55;54.64
35908;BME280;22003;50.320;8.054;2023-04-06T16:35:53;99716.44;;;10.54;55.63
35908;BME280;22003;50.320;8.054;2023-04-06T16:38:19;99686.94;;;10.25;57.98
35908;BME280;22003;50.320;8.054;2023-04-06T16:40:46;99634.41;;;9.85;58.29
35908;BME280;22003;50.320;8.054;2023-04-06T16:43:12;99717.88;;;10.24;60.03
35908;BME280;22003;50.320;8.054;2023-04-06T16:45:38;99671.34;;;9.98;60.26
35908;BME280;22003;50.320;8.054;2023-04-06T16:48:03;99721.03;;;9.94;61.43
35908;BME280;22003;50.320;8.054;2023-04-06T16:50:28;99712.81;;;9.86;62.36
35908;BME280;22003;50.320;8.054;2023-04-06T16:52:54;99713.81;;;9.96;60.29
35908;BME280;22003;50.320;8.054;2023-04-06T16:55:19;99712.31;;;9.81;60.74
35908;BME280;22003;50.320;8.054;2023-04-06T16:57:44;99710.06;;;9.99;60.17
35908;BME280;22003;50.320;8.054;2023-04-06T17:00:13;99715.00;;;9.92;60.70
35908;BME280;22003;50.320;8.054;2023-04-06T17:02:38;99723.00;;;9.79;61.51
35908;BME280;22003;50.320;8.054;2023-04-06T17:05:04;99650.94;;;9.30;61.81
35908;BME280;22003;50.320;8.054;2023-04-06T17:07:29;99685.13;;;9.79;60.83